N623AZ KTOA-KBXK
Flight info
| Callsign | N623AZ |
|---|---|
| Flight time | 2h 40m |
| Altitude | 12500 |
| Route | KTOA BLH KBXK |
| Aircraft | CC19/L-VGD/A |
Departure
| Time | 2026-05-06 03:20 |
|---|---|
| Airport | Zamperini Field (KTOA) |
Arrival
| Time | 2026-05-06 06:01 |
|---|---|
| Airport | Buckeye Municipal Airport (KBXK) |
| Time | Latitude | Longitude | Altitude | Speed | Heading |
|---|---|---|---|---|---|
| 2026-05-06 02:01 | 33.79597 | -118.33279 | 84 ft | 0 kts | 1° |
| 2026-05-06 02:30 | 33.80499 | -118.34650 | 84 ft | 0 kts | 220° |
| 2026-05-06 02:49 | 33.80497 | -118.34652 | 84 ft | 0 kts | 220° |
| 2026-05-06 03:02 | 33.80495 | -118.34654 | 84 ft | 2 kts | 218° |
| 2026-05-06 03:02 | 33.80487 | -118.34653 | 85 ft | 0 kts | 139° |
| 2026-05-06 03:11 | 33.80479 | -118.34645 | 84 ft | 6 kts | 129° |
| 2026-05-06 03:11 | 33.80506 | -118.34582 | 84 ft | 12 kts | 32° |
| 2026-05-06 03:12 | 33.80516 | -118.34529 | 84 ft | 8 kts | 128° |
| 2026-05-06 03:12 | 33.80475 | -118.34467 | 85 ft | 11 kts | 128° |
| 2026-05-06 03:12 | 33.80423 | -118.34388 | 85 ft | 13 kts | 129° |
| 2026-05-06 03:12 | 33.80363 | -118.34296 | 85 ft | 15 kts | 128° |
| 2026-05-06 03:13 | 33.80298 | -118.34197 | 85 ft | 15 kts | 129° |
| 2026-05-06 03:13 | 33.80230 | -118.34095 | 85 ft | 16 kts | 128° |
| 2026-05-06 03:13 | 33.80158 | -118.33988 | 85 ft | 17 kts | 128° |
| 2026-05-06 03:13 | 33.80085 | -118.33878 | 85 ft | 17 kts | 128° |
| 2026-05-06 03:14 | 33.80018 | -118.33779 | 85 ft | 12 kts | 146° |
| 2026-05-06 03:14 | 33.79970 | -118.33751 | 84 ft | 1 kts | 107° |
| 2026-05-06 03:14 | 33.79970 | -118.33746 | 84 ft | 0 kts | 65° |
| 2026-05-06 03:17 | 33.79971 | -118.33742 | 84 ft | 0 kts | 64° |
| 2026-05-06 03:18 | 33.79971 | -118.33741 | 84 ft | 1 kts | 64° |
| 2026-05-06 03:18 | 33.79972 | -118.33710 | 87 ft | 8 kts | 109° |
| 2026-05-06 03:18 | 33.79983 | -118.33679 | 88 ft | 0 kts | 34° |
| 2026-05-06 03:19 | 33.79985 | -118.33677 | 88 ft | 0 kts | 38° |
| 2026-05-06 03:19 | 33.79991 | -118.33671 | 89 ft | 5 kts | 39° |
| 2026-05-06 03:19 | 33.80043 | -118.33682 | 94 ft | 15 kts | 306° |
| 2026-05-06 03:20 | 33.80529 | -118.34396 | 388 ft | 73 kts | 299° |
| 2026-05-06 03:20 | 33.80799 | -118.34853 | 854 ft | 63 kts | 296° |
| 2026-05-06 03:20 | 33.81176 | -118.35063 | 1188 ft | 81 kts | 15° |
| 2026-05-06 03:21 | 33.81680 | -118.34567 | 1318 ft | 103 kts | 59° |
| 2026-05-06 03:21 | 33.81551 | -118.33706 | 1471 ft | 114 kts | 117° |
| 2026-05-06 03:21 | 33.81187 | -118.32821 | 1511 ft | 123 kts | 120° |
| 2026-05-06 03:21 | 33.80750 | -118.31920 | 1513 ft | 123 kts | 122° |
| 2026-05-06 03:22 | 33.80324 | -118.31019 | 1534 ft | 125 kts | 121° |
| 2026-05-06 03:22 | 33.79861 | -118.30139 | 1582 ft | 123 kts | 126° |
| 2026-05-06 03:22 | 33.79398 | -118.29289 | 1650 ft | 122 kts | 125° |
| 2026-05-06 03:22 | 33.78937 | -118.28424 | 1661 ft | 123 kts | 126° |
| 2026-05-06 03:23 | 33.78461 | -118.27570 | 1699 ft | 125 kts | 127° |
| 2026-05-06 03:23 | 33.77958 | -118.26709 | 1746 ft | 123 kts | 134° |
| 2026-05-06 03:23 | 33.77303 | -118.26053 | 1749 ft | 125 kts | 152° |
| 2026-05-06 03:23 | 33.76589 | -118.25489 | 1819 ft | 121 kts | 149° |
| 2026-05-06 03:24 | 33.75950 | -118.24819 | 1865 ft | 124 kts | 141° |
| 2026-05-06 03:24 | 33.75328 | -118.24105 | 1931 ft | 123 kts | 139° |
| 2026-05-06 03:24 | 33.74693 | -118.23397 | 1905 ft | 125 kts | 140° |
| 2026-05-06 03:24 | 33.74064 | -118.22683 | 1959 ft | 124 kts | 138° |
| 2026-05-06 03:25 | 33.73488 | -118.21911 | 1999 ft | 126 kts | 125° |
| 2026-05-06 03:25 | 33.73172 | -118.20897 | 1920 ft | 133 kts | 99° |
| 2026-05-06 03:25 | 33.73013 | -118.19876 | 2187 ft | 114 kts | 101° |
| 2026-05-06 03:25 | 33.72889 | -118.19020 | 2598 ft | 98 kts | 99° |
| 2026-05-06 03:26 | 33.72774 | -118.18223 | 2871 ft | 97 kts | 101° |
| 2026-05-06 03:26 | 33.72655 | -118.17442 | 3145 ft | 94 kts | 101° |
| 2026-05-06 03:26 | 33.72531 | -118.16677 | 3392 ft | 93 kts | 100° |
| 2026-05-06 03:26 | 33.72418 | -118.15906 | 3634 ft | 90 kts | 101° |
| 2026-05-06 03:27 | 33.72313 | -118.15165 | 3878 ft | 90 kts | 101° |
| 2026-05-06 03:27 | 33.72208 | -118.14435 | 4142 ft | 89 kts | 96° |
| 2026-05-06 03:27 | 33.72105 | -118.13684 | 4352 ft | 91 kts | 103° |
| 2026-05-06 03:27 | 33.71947 | -118.12959 | 4586 ft | 91 kts | 103° |
| 2026-05-06 03:28 | 33.71820 | -118.12214 | 4823 ft | 90 kts | 100° |
| 2026-05-06 03:28 | 33.71747 | -118.11727 | 4969 ft | 89 kts | 98° |
| 2026-05-06 03:28 | 33.71635 | -118.10994 | 5154 ft | 93 kts | 98° |
| 2026-05-06 03:28 | 33.71536 | -118.10235 | 5394 ft | 90 kts | 95° |
| 2026-05-06 03:29 | 33.71445 | -118.09481 | 5592 ft | 92 kts | 94° |
| 2026-05-06 03:29 | 33.71384 | -118.08476 | 5872 ft | 93 kts | 100° |
| 2026-05-06 03:29 | 33.71253 | -118.07684 | 5951 ft | 106 kts | 96° |
| 2026-05-06 03:29 | 33.71185 | -118.07064 | 5941 ft | 115 kts | 94° |
| 2026-05-06 03:30 | 33.71042 | -118.05791 | 5969 ft | 117 kts | 96° |
| 2026-05-06 03:30 | 33.70938 | -118.05139 | 5954 ft | 118 kts | 100° |
| 2026-05-06 03:30 | 33.70726 | -118.04176 | 5940 ft | 119 kts | 104° |
| 2026-05-06 03:30 | 33.70508 | -118.03214 | 5924 ft | 120 kts | 101° |
| 2026-05-06 03:31 | 33.70345 | -118.02249 | 5906 ft | 119 kts | 92° |
| 2026-05-06 03:31 | 33.70247 | -118.01245 | 5888 ft | 120 kts | 94° |
| 2026-05-06 03:31 | 33.70145 | -118.00264 | 5870 ft | 120 kts | 94° |
| 2026-05-06 03:31 | 33.70050 | -117.99277 | 5869 ft | 118 kts | 94° |
| 2026-05-06 03:32 | 33.69957 | -117.98298 | 5885 ft | 118 kts | 93° |
| 2026-05-06 03:32 | 33.69866 | -117.97321 | 5867 ft | 118 kts | 94° |
| 2026-05-06 03:32 | 33.69775 | -117.96340 | 5857 ft | 118 kts | 94° |
| 2026-05-06 03:32 | 33.69685 | -117.95360 | 5833 ft | 118 kts | 93° |
| 2026-05-06 03:33 | 33.69594 | -117.94377 | 5821 ft | 119 kts | 94° |
| 2026-05-06 03:33 | 33.69503 | -117.93394 | 5807 ft | 118 kts | 94° |
| 2026-05-06 03:33 | 33.69413 | -117.92438 | 5901 ft | 110 kts | 92° |
| 2026-05-06 03:33 | 33.69331 | -117.91535 | 6041 ft | 108 kts | 93° |
| 2026-05-06 03:34 | 33.69250 | -117.90656 | 6230 ft | 104 kts | 93° |
| 2026-05-06 03:34 | 33.69172 | -117.89806 | 6421 ft | 101 kts | 91° |
| 2026-05-06 03:34 | 33.69095 | -117.88985 | 6603 ft | 97 kts | 91° |
| 2026-05-06 03:34 | 33.69022 | -117.88191 | 6783 ft | 94 kts | 91° |
| 2026-05-06 03:35 | 33.68950 | -117.87413 | 6969 ft | 93 kts | 91° |
| 2026-05-06 03:35 | 33.68879 | -117.86644 | 7158 ft | 92 kts | 90° |
| 2026-05-06 03:35 | 33.68809 | -117.85886 | 7353 ft | 90 kts | 91° |
| 2026-05-06 03:35 | 33.68739 | -117.85152 | 7537 ft | 87 kts | 90° |
| 2026-05-06 03:36 | 33.68673 | -117.84436 | 7727 ft | 85 kts | 90° |
| 2026-05-06 03:36 | 33.68608 | -117.83732 | 7920 ft | 84 kts | 90° |
| 2026-05-06 03:36 | 33.68544 | -117.83042 | 8112 ft | 82 kts | 90° |
| 2026-05-06 03:36 | 33.68480 | -117.82364 | 8306 ft | 81 kts | 90° |
| 2026-05-06 03:37 | 33.68419 | -117.81698 | 8504 ft | 80 kts | 89° |
| 2026-05-06 03:37 | 33.68358 | -117.81047 | 8700 ft | 77 kts | 90° |
| 2026-05-06 03:37 | 33.68299 | -117.80419 | 8892 ft | 74 kts | 89° |
| 2026-05-06 03:37 | 33.68243 | -117.79815 | 9080 ft | 71 kts | 89° |
| 2026-05-06 03:38 | 33.68190 | -117.79241 | 9271 ft | 67 kts | 88° |
| 2026-05-06 03:38 | 33.68140 | -117.78705 | 9451 ft | 62 kts | 87° |
| 2026-05-06 03:38 | 33.68094 | -117.78215 | 9628 ft | 56 kts | 85° |
| 2026-05-06 03:38 | 33.68055 | -117.77769 | 9763 ft | 53 kts | 85° |
| 2026-05-06 03:39 | 33.68017 | -117.77348 | 9882 ft | 49 kts | 84° |
| 2026-05-06 03:39 | 33.67980 | -117.76943 | 9965 ft | 50 kts | 86° |
| 2026-05-06 03:39 | 33.67944 | -117.76539 | 10048 ft | 50 kts | 87° |
| 2026-05-06 03:39 | 33.67906 | -117.76129 | 10121 ft | 50 kts | 87° |
| 2026-05-06 03:40 | 33.67869 | -117.75721 | 10195 ft | 50 kts | 87° |
| 2026-05-06 03:40 | 33.67832 | -117.75311 | 10268 ft | 50 kts | 87° |
| 2026-05-06 03:40 | 33.67794 | -117.74903 | 10342 ft | 50 kts | 86° |
| 2026-05-06 03:40 | 33.67756 | -117.74492 | 10410 ft | 50 kts | 85° |
| 2026-05-06 03:41 | 33.67717 | -117.74078 | 10480 ft | 50 kts | 84° |
| 2026-05-06 03:41 | 33.67678 | -117.73662 | 10546 ft | 50 kts | 84° |
| 2026-05-06 03:41 | 33.67637 | -117.73243 | 10607 ft | 50 kts | 83° |
| 2026-05-06 03:41 | 33.67618 | -117.72826 | 10668 ft | 50 kts | 77° |
| 2026-05-06 03:42 | 33.67605 | -117.72408 | 10731 ft | 50 kts | 77° |
| 2026-05-06 03:42 | 33.67594 | -117.71985 | 10795 ft | 50 kts | 78° |
| 2026-05-06 03:42 | 33.67583 | -117.71559 | 10849 ft | 51 kts | 79° |
| 2026-05-06 03:42 | 33.67572 | -117.71125 | 10908 ft | 52 kts | 80° |
| 2026-05-06 03:43 | 33.67564 | -117.70699 | 11009 ft | 51 kts | 80° |
| 2026-05-06 03:43 | 33.67601 | -117.70089 | 10920 ft | 84 kts | 79° |
| 2026-05-06 03:43 | 33.67568 | -117.69544 | 11246 ft | 51 kts | 78° |
| 2026-05-06 03:43 | 33.67543 | -117.69007 | 11282 ft | 68 kts | 85° |
| 2026-05-06 03:44 | 33.67522 | -117.68417 | 11382 ft | 75 kts | 85° |
| 2026-05-06 03:44 | 33.67497 | -117.67769 | 11475 ft | 81 kts | 86° |
| 2026-05-06 03:44 | 33.67474 | -117.67071 | 11566 ft | 86 kts | 85° |
| 2026-05-06 03:44 | 33.67452 | -117.66339 | 11646 ft | 89 kts | 85° |
| 2026-05-06 03:45 | 33.67429 | -117.65580 | 11719 ft | 92 kts | 85° |
| 2026-05-06 03:45 | 33.67408 | -117.64803 | 11788 ft | 94 kts | 86° |
| 2026-05-06 03:45 | 33.67387 | -117.64006 | 11852 ft | 96 kts | 85° |
| 2026-05-06 03:45 | 33.67366 | -117.63198 | 11912 ft | 97 kts | 85° |
| 2026-05-06 03:46 | 33.67345 | -117.62379 | 11970 ft | 99 kts | 85° |
| 2026-05-06 03:46 | 33.67323 | -117.61551 | 12026 ft | 100 kts | 86° |
| 2026-05-06 03:46 | 33.67302 | -117.60717 | 12081 ft | 100 kts | 86° |
| 2026-05-06 03:46 | 33.67282 | -117.59884 | 12133 ft | 100 kts | 86° |
| 2026-05-06 03:47 | 33.67260 | -117.59050 | 12189 ft | 100 kts | 86° |
| 2026-05-06 03:47 | 33.67239 | -117.58210 | 12242 ft | 101 kts | 86° |
| 2026-05-06 03:47 | 33.67217 | -117.57361 | 12294 ft | 102 kts | 86° |
| 2026-05-06 03:47 | 33.67195 | -117.56512 | 12342 ft | 101 kts | 86° |
| 2026-05-06 03:48 | 33.67174 | -117.55674 | 12394 ft | 100 kts | 86° |
| 2026-05-06 03:48 | 33.67153 | -117.54832 | 12446 ft | 102 kts | 86° |
| 2026-05-06 03:48 | 33.67130 | -117.53981 | 12498 ft | 103 kts | 86° |
| 2026-05-06 03:48 | 33.67108 | -117.53101 | 12506 ft | 107 kts | 86° |
| 2026-05-06 03:49 | 33.67085 | -117.52198 | 12509 ft | 109 kts | 86° |
| 2026-05-06 03:49 | 33.67060 | -117.51285 | 12507 ft | 110 kts | 86° |
| 2026-05-06 03:49 | 33.67036 | -117.50379 | 12505 ft | 107 kts | 86° |
| 2026-05-06 03:49 | 33.67013 | -117.49490 | 12503 ft | 107 kts | 86° |
| 2026-05-06 03:50 | 33.66988 | -117.48612 | 12495 ft | 104 kts | 87° |
| 2026-05-06 03:50 | 33.66967 | -117.47750 | 12492 ft | 103 kts | 86° |
| 2026-05-06 03:50 | 33.66946 | -117.46892 | 12492 ft | 105 kts | 86° |
| 2026-05-06 03:50 | 33.66923 | -117.46004 | 12492 ft | 105 kts | 86° |
| 2026-05-06 03:51 | 33.66899 | -117.45138 | 12498 ft | 106 kts | 86° |
| 2026-05-06 03:51 | 33.66876 | -117.44255 | 12482 ft | 106 kts | 86° |
| 2026-05-06 03:51 | 33.66853 | -117.43375 | 12482 ft | 106 kts | 86° |
| 2026-05-06 03:51 | 33.66828 | -117.42487 | 12477 ft | 107 kts | 86° |
| 2026-05-06 03:52 | 33.66805 | -117.41597 | 12484 ft | 107 kts | 86° |
| 2026-05-06 03:52 | 33.66781 | -117.40707 | 12482 ft | 106 kts | 86° |
| 2026-05-06 03:52 | 33.66757 | -117.39823 | 12478 ft | 106 kts | 86° |
| 2026-05-06 03:52 | 33.66733 | -117.38939 | 12480 ft | 106 kts | 86° |
| 2026-05-06 03:53 | 33.66710 | -117.38060 | 12476 ft | 105 kts | 86° |
| 2026-05-06 03:53 | 33.66686 | -117.37184 | 12474 ft | 105 kts | 86° |
| 2026-05-06 03:53 | 33.66663 | -117.36309 | 12471 ft | 105 kts | 86° |
| 2026-05-06 03:53 | 33.66639 | -117.35435 | 12470 ft | 105 kts | 86° |
| 2026-05-06 03:54 | 33.66615 | -117.34564 | 12469 ft | 104 kts | 86° |
| 2026-05-06 03:54 | 33.66591 | -117.33694 | 12471 ft | 104 kts | 86° |
| 2026-05-06 03:54 | 33.66568 | -117.32823 | 12470 ft | 104 kts | 86° |
| 2026-05-06 03:54 | 33.66544 | -117.31954 | 12468 ft | 104 kts | 86° |
| 2026-05-06 03:55 | 33.66519 | -117.31088 | 12469 ft | 104 kts | 86° |
| 2026-05-06 03:55 | 33.66496 | -117.30223 | 12469 ft | 104 kts | 86° |
| 2026-05-06 03:55 | 33.66472 | -117.29358 | 12470 ft | 104 kts | 86° |
| 2026-05-06 03:55 | 33.66448 | -117.28495 | 12470 ft | 103 kts | 86° |
| 2026-05-06 03:56 | 33.66424 | -117.27633 | 12469 ft | 103 kts | 86° |
| 2026-05-06 03:56 | 33.66408 | -117.26771 | 12498 ft | 104 kts | 86° |
| 2026-05-06 03:56 | 33.66375 | -117.25901 | 12503 ft | 105 kts | 87° |
| 2026-05-06 03:56 | 33.66349 | -117.25025 | 12504 ft | 105 kts | 86° |
| 2026-05-06 03:57 | 33.66326 | -117.24155 | 12507 ft | 104 kts | 86° |
| 2026-05-06 03:57 | 33.66302 | -117.23284 | 12507 ft | 105 kts | 86° |
| 2026-05-06 03:57 | 33.66277 | -117.22409 | 12508 ft | 105 kts | 86° |
| 2026-05-06 03:57 | 33.66252 | -117.21526 | 12512 ft | 106 kts | 86° |
| 2026-05-06 03:58 | 33.66227 | -117.20646 | 12514 ft | 105 kts | 86° |
| 2026-05-06 03:58 | 33.66202 | -117.19781 | 12514 ft | 105 kts | 87° |
| 2026-05-06 03:58 | 33.66178 | -117.18905 | 12513 ft | 105 kts | 87° |
| 2026-05-06 03:58 | 33.66153 | -117.18034 | 12516 ft | 104 kts | 86° |
| 2026-05-06 03:59 | 33.66128 | -117.17161 | 12515 ft | 105 kts | 87° |
| 2026-05-06 03:59 | 33.66103 | -117.16287 | 12518 ft | 105 kts | 87° |
| 2026-05-06 03:59 | 33.66078 | -117.15412 | 12518 ft | 105 kts | 87° |
| 2026-05-06 03:59 | 33.66053 | -117.14537 | 12518 ft | 105 kts | 86° |
| 2026-05-06 04:00 | 33.66027 | -117.13665 | 12518 ft | 105 kts | 86° |
| 2026-05-06 04:00 | 33.66002 | -117.12789 | 12521 ft | 105 kts | 86° |
| 2026-05-06 04:00 | 33.65976 | -117.11914 | 12522 ft | 105 kts | 87° |
| 2026-05-06 04:00 | 33.65951 | -117.11038 | 12524 ft | 105 kts | 87° |
| 2026-05-06 04:01 | 33.65925 | -117.10163 | 12521 ft | 105 kts | 87° |
| 2026-05-06 04:01 | 33.65899 | -117.09290 | 12523 ft | 105 kts | 87° |
| 2026-05-06 04:01 | 33.65874 | -117.08417 | 12519 ft | 105 kts | 86° |
| 2026-05-06 04:01 | 33.65848 | -117.07542 | 12519 ft | 105 kts | 86° |
| 2026-05-06 04:02 | 33.65823 | -117.06667 | 12521 ft | 105 kts | 87° |
| 2026-05-06 04:02 | 33.65796 | -117.05788 | 12521 ft | 106 kts | 86° |
| 2026-05-06 04:02 | 33.65770 | -117.04902 | 12529 ft | 107 kts | 87° |
| 2026-05-06 04:02 | 33.65744 | -117.04014 | 12530 ft | 106 kts | 86° |
| 2026-05-06 04:03 | 33.65717 | -117.03131 | 12532 ft | 106 kts | 87° |
| 2026-05-06 04:03 | 33.65691 | -117.02254 | 12530 ft | 105 kts | 86° |
| 2026-05-06 04:03 | 33.65665 | -117.01375 | 12529 ft | 106 kts | 86° |
| 2026-05-06 04:03 | 33.65638 | -117.00492 | 12528 ft | 106 kts | 86° |
| 2026-05-06 04:04 | 33.65612 | -116.99611 | 12529 ft | 105 kts | 86° |
| 2026-05-06 04:04 | 33.65586 | -116.98735 | 12531 ft | 105 kts | 87° |
| 2026-05-06 04:04 | 33.65559 | -116.97856 | 12531 ft | 106 kts | 86° |
| 2026-05-06 04:04 | 33.65532 | -116.96971 | 12533 ft | 106 kts | 84° |
| 2026-05-06 04:05 | 33.65505 | -116.96090 | 12532 ft | 105 kts | 85° |
| 2026-05-06 04:05 | 33.65479 | -116.95213 | 12532 ft | 105 kts | 85° |
| 2026-05-06 04:05 | 33.65452 | -116.94335 | 12528 ft | 105 kts | 85° |
| 2026-05-06 04:05 | 33.65426 | -116.93463 | 12527 ft | 104 kts | 85° |
| 2026-05-06 04:06 | 33.65398 | -116.92593 | 12527 ft | 105 kts | 84° |
| 2026-05-06 04:06 | 33.65372 | -116.91727 | 12522 ft | 102 kts | 87° |
| 2026-05-06 04:06 | 33.65345 | -116.90885 | 12514 ft | 100 kts | 84° |
| 2026-05-06 04:06 | 33.65320 | -116.90055 | 12508 ft | 100 kts | 84° |
| 2026-05-06 04:07 | 33.65295 | -116.89211 | 12511 ft | 102 kts | 85° |
| 2026-05-06 04:07 | 33.65268 | -116.88356 | 12516 ft | 103 kts | 84° |
| 2026-05-06 04:07 | 33.65243 | -116.87494 | 12520 ft | 104 kts | 83° |
| 2026-05-06 04:07 | 33.65214 | -116.86631 | 12519 ft | 103 kts | 84° |
| 2026-05-06 04:08 | 33.65188 | -116.85765 | 12518 ft | 104 kts | 86° |
| 2026-05-06 04:08 | 33.65159 | -116.84891 | 12518 ft | 105 kts | 85° |
| 2026-05-06 04:08 | 33.65133 | -116.84009 | 12518 ft | 106 kts | 85° |
| 2026-05-06 04:08 | 33.65105 | -116.83127 | 12513 ft | 106 kts | 84° |
| 2026-05-06 04:09 | 33.65076 | -116.82237 | 12512 ft | 107 kts | 87° |
| 2026-05-06 04:09 | 33.65047 | -116.81347 | 12507 ft | 106 kts | 87° |
| 2026-05-06 04:09 | 33.65021 | -116.80468 | 12508 ft | 105 kts | 86° |
| 2026-05-06 04:09 | 33.64993 | -116.79590 | 12503 ft | 106 kts | 86° |
| 2026-05-06 04:10 | 33.64967 | -116.78715 | 12499 ft | 104 kts | 85° |
| 2026-05-06 04:10 | 33.64938 | -116.77845 | 12500 ft | 105 kts | 85° |
| 2026-05-06 04:10 | 33.64910 | -116.76961 | 12499 ft | 107 kts | 86° |
| 2026-05-06 04:10 | 33.64881 | -116.76058 | 12498 ft | 109 kts | 85° |
| 2026-05-06 04:11 | 33.64852 | -116.75158 | 12494 ft | 107 kts | 89° |
| 2026-05-06 04:11 | 33.64822 | -116.74263 | 12490 ft | 107 kts | 87° |
| 2026-05-06 04:11 | 33.64795 | -116.73378 | 12487 ft | 108 kts | 87° |
| 2026-05-06 04:11 | 33.64765 | -116.72473 | 12439 ft | 109 kts | 86° |
| 2026-05-06 04:12 | 33.64736 | -116.71559 | 12440 ft | 109 kts | 87° |
| 2026-05-06 04:12 | 33.64707 | -116.70650 | 12441 ft | 109 kts | 86° |
| 2026-05-06 04:12 | 33.64676 | -116.69732 | 12437 ft | 110 kts | 88° |
| 2026-05-06 04:12 | 33.64646 | -116.68813 | 12433 ft | 111 kts | 86° |
| 2026-05-06 04:13 | 33.64616 | -116.67891 | 12433 ft | 110 kts | 87° |
| 2026-05-06 04:13 | 33.64587 | -116.66974 | 12434 ft | 110 kts | 88° |
| 2026-05-06 04:13 | 33.64557 | -116.66054 | 12433 ft | 110 kts | 88° |
| 2026-05-06 04:13 | 33.64526 | -116.65133 | 12429 ft | 110 kts | 87° |
| 2026-05-06 04:14 | 33.64496 | -116.64219 | 12418 ft | 109 kts | 87° |
| 2026-05-06 04:14 | 33.64465 | -116.63315 | 12424 ft | 108 kts | 86° |
| 2026-05-06 04:14 | 33.64436 | -116.62415 | 12419 ft | 108 kts | 87° |
| 2026-05-06 04:14 | 33.64407 | -116.61512 | 12421 ft | 108 kts | 87° |
| 2026-05-06 04:15 | 33.64380 | -116.60607 | 12420 ft | 109 kts | 88° |
| 2026-05-06 04:15 | 33.64345 | -116.59697 | 12420 ft | 109 kts | 88° |
| 2026-05-06 04:15 | 33.64314 | -116.58783 | 12424 ft | 110 kts | 87° |
| 2026-05-06 04:15 | 33.64285 | -116.57872 | 12420 ft | 109 kts | 88° |
| 2026-05-06 04:16 | 33.64254 | -116.56957 | 12420 ft | 110 kts | 86° |
| 2026-05-06 04:16 | 33.64223 | -116.56045 | 12411 ft | 109 kts | 89° |
| 2026-05-06 04:16 | 33.64193 | -116.55140 | 12415 ft | 109 kts | 88° |
| 2026-05-06 04:16 | 33.64163 | -116.54237 | 12414 ft | 108 kts | 88° |
| 2026-05-06 04:17 | 33.64132 | -116.53334 | 12415 ft | 109 kts | 86° |
| 2026-05-06 04:17 | 33.64102 | -116.52421 | 12418 ft | 110 kts | 88° |
| 2026-05-06 04:17 | 33.64081 | -116.51812 | 12416 ft | 110 kts | 88° |
| 2026-05-06 04:17 | 33.64039 | -116.50580 | 12419 ft | 111 kts | 87° |
| 2026-05-06 04:18 | 33.64018 | -116.49972 | 12414 ft | 110 kts | 88° |
| 2026-05-06 04:18 | 33.63986 | -116.49058 | 12417 ft | 110 kts | 88° |
| 2026-05-06 04:18 | 33.63956 | -116.48142 | 12416 ft | 110 kts | 88° |
| 2026-05-06 04:18 | 33.63924 | -116.47222 | 12418 ft | 111 kts | 88° |
| 2026-05-06 04:19 | 33.63892 | -116.46295 | 12400 ft | 112 kts | 88° |
| 2026-05-06 04:19 | 33.63859 | -116.45314 | 12265 ft | 121 kts | 88° |
| 2026-05-06 04:19 | 33.63823 | -116.44296 | 12125 ft | 123 kts | 88° |
| 2026-05-06 04:19 | 33.63789 | -116.43270 | 11986 ft | 124 kts | 90° |
| 2026-05-06 04:20 | 33.63749 | -116.42237 | 11846 ft | 124 kts | 89° |
| 2026-05-06 04:20 | 33.63713 | -116.41202 | 11700 ft | 124 kts | 88° |
| 2026-05-06 04:20 | 33.63677 | -116.40166 | 11541 ft | 125 kts | 89° |
| 2026-05-06 04:20 | 33.63640 | -116.39130 | 11390 ft | 125 kts | 89° |
| 2026-05-06 04:21 | 33.63605 | -116.38090 | 11248 ft | 125 kts | 89° |
| 2026-05-06 04:21 | 33.63568 | -116.37046 | 11101 ft | 125 kts | 88° |
| 2026-05-06 04:21 | 33.63532 | -116.36001 | 10952 ft | 125 kts | 89° |
| 2026-05-06 04:21 | 33.63494 | -116.34955 | 10810 ft | 125 kts | 89° |
| 2026-05-06 04:22 | 33.63458 | -116.33914 | 10653 ft | 125 kts | 89° |
| 2026-05-06 04:22 | 33.63421 | -116.32876 | 10521 ft | 124 kts | 88° |
| 2026-05-06 04:22 | 33.63384 | -116.31841 | 10388 ft | 123 kts | 89° |
| 2026-05-06 04:23 | 33.63315 | -116.29894 | 10370 ft | 112 kts | 88° |
| 2026-05-06 04:23 | 33.63282 | -116.28971 | 10371 ft | 109 kts | 88° |
| 2026-05-06 04:23 | 33.63250 | -116.28061 | 10370 ft | 110 kts | 89° |
| 2026-05-06 04:23 | 33.63216 | -116.27147 | 10370 ft | 110 kts | 88° |
| 2026-05-06 04:24 | 33.63185 | -116.26233 | 10369 ft | 110 kts | 88° |
| 2026-05-06 04:24 | 33.63152 | -116.25318 | 10370 ft | 110 kts | 89° |
| 2026-05-06 04:24 | 33.63121 | -116.24416 | 10372 ft | 110 kts | 88° |
| 2026-05-06 04:24 | 33.63086 | -116.23490 | 10376 ft | 110 kts | 90° |
| 2026-05-06 04:25 | 33.63053 | -116.22589 | 10374 ft | 110 kts | 89° |
| 2026-05-06 04:25 | 33.63019 | -116.21660 | 10374 ft | 110 kts | 89° |
| 2026-05-06 04:25 | 33.62986 | -116.20756 | 10376 ft | 110 kts | 90° |
| 2026-05-06 04:25 | 33.62953 | -116.19842 | 10374 ft | 110 kts | 90° |
| 2026-05-06 04:26 | 33.62920 | -116.18928 | 10374 ft | 110 kts | 90° |
| 2026-05-06 04:26 | 33.62886 | -116.18014 | 10372 ft | 109 kts | 90° |
| 2026-05-06 04:26 | 33.62853 | -116.17100 | 10372 ft | 110 kts | 90° |
| 2026-05-06 04:26 | 33.62819 | -116.16185 | 10372 ft | 110 kts | 90° |
| 2026-05-06 04:27 | 33.62816 | -116.15269 | 10371 ft | 110 kts | 89° |
| 2026-05-06 04:27 | 33.62791 | -116.14352 | 10373 ft | 110 kts | 89° |
| 2026-05-06 04:27 | 33.62772 | -116.13432 | 10372 ft | 110 kts | 90° |
| 2026-05-06 04:27 | 33.62753 | -116.12512 | 10371 ft | 110 kts | 89° |
| 2026-05-06 04:28 | 33.62737 | -116.11599 | 10372 ft | 109 kts | 90° |
| 2026-05-06 04:28 | 33.62720 | -116.10688 | 10373 ft | 110 kts | 90° |
| 2026-05-06 04:28 | 33.62704 | -116.09770 | 10371 ft | 110 kts | 90° |
| 2026-05-06 04:28 | 33.62687 | -116.08848 | 10373 ft | 111 kts | 90° |
| 2026-05-06 04:29 | 33.62671 | -116.07923 | 10375 ft | 111 kts | 90° |
| 2026-05-06 04:29 | 33.62654 | -116.06998 | 10375 ft | 111 kts | 90° |
| 2026-05-06 04:29 | 33.62637 | -116.06070 | 10378 ft | 112 kts | 90° |
| 2026-05-06 04:29 | 33.62620 | -116.05140 | 10377 ft | 112 kts | 90° |
| 2026-05-06 04:30 | 33.62603 | -116.04211 | 10378 ft | 112 kts | 90° |
| 2026-05-06 04:30 | 33.62587 | -116.03278 | 10379 ft | 112 kts | 90° |
| 2026-05-06 04:30 | 33.62569 | -116.02344 | 10375 ft | 112 kts | 90° |
| 2026-05-06 04:30 | 33.62552 | -116.01405 | 10378 ft | 113 kts | 91° |
| 2026-05-06 04:31 | 33.62535 | -116.00466 | 10378 ft | 113 kts | 91° |
| 2026-05-06 04:31 | 33.62517 | -115.99525 | 10376 ft | 113 kts | 91° |
| 2026-05-06 04:31 | 33.62500 | -115.98584 | 10378 ft | 113 kts | 91° |
| 2026-05-06 04:31 | 33.62482 | -115.97635 | 10378 ft | 114 kts | 91° |
| 2026-05-06 04:32 | 33.62464 | -115.96687 | 10376 ft | 114 kts | 91° |
| 2026-05-06 04:32 | 33.62446 | -115.95735 | 10373 ft | 114 kts | 91° |
| 2026-05-06 04:32 | 33.62433 | -115.95062 | 10377 ft | 114 kts | 91° |
| 2026-05-06 04:33 | 33.62417 | -115.94201 | 10375 ft | 114 kts | 91° |
| 2026-05-06 04:33 | 33.62398 | -115.93205 | 10246 ft | 123 kts | 91° |
| 2026-05-06 04:33 | 33.62376 | -115.92162 | 10113 ft | 126 kts | 91° |
| 2026-05-06 04:33 | 33.62356 | -115.91103 | 9987 ft | 127 kts | 91° |
| 2026-05-06 04:34 | 33.62356 | -115.91091 | 9985 ft | 127 kts | 91° |
| 2026-05-06 04:34 | 33.62340 | -115.90233 | 9875 ft | 128 kts | 91° |
| 2026-05-06 04:34 | 33.62319 | -115.89163 | 9734 ft | 129 kts | 91° |
| 2026-05-06 04:34 | 33.62298 | -115.88097 | 9582 ft | 130 kts | 91° |
| 2026-05-06 04:35 | 33.62276 | -115.87012 | 9428 ft | 130 kts | 91° |
| 2026-05-06 04:35 | 33.62255 | -115.85925 | 9271 ft | 131 kts | 91° |
| 2026-05-06 04:35 | 33.62234 | -115.84834 | 9117 ft | 131 kts | 91° |
| 2026-05-06 04:35 | 33.62212 | -115.83741 | 8962 ft | 131 kts | 91° |
| 2026-05-06 04:36 | 33.62190 | -115.82646 | 8809 ft | 131 kts | 91° |
| 2026-05-06 04:36 | 33.62168 | -115.81551 | 8657 ft | 131 kts | 91° |
| 2026-05-06 04:36 | 33.62145 | -115.80456 | 8500 ft | 132 kts | 91° |
| 2026-05-06 04:36 | 33.62124 | -115.79354 | 8369 ft | 132 kts | 91° |
| 2026-05-06 04:37 | 33.62103 | -115.78292 | 8360 ft | 124 kts | 91° |
| 2026-05-06 04:37 | 33.62082 | -115.77272 | 8352 ft | 121 kts | 91° |
| 2026-05-06 04:37 | 33.62063 | -115.76267 | 8353 ft | 120 kts | 91° |
| 2026-05-06 04:37 | 33.62042 | -115.75274 | 8351 ft | 119 kts | 92° |
| 2026-05-06 04:38 | 33.62022 | -115.74290 | 8355 ft | 118 kts | 91° |
| 2026-05-06 04:38 | 33.62002 | -115.73300 | 8354 ft | 119 kts | 91° |
| 2026-05-06 04:38 | 33.61981 | -115.72305 | 8357 ft | 120 kts | 92° |
| 2026-05-06 04:38 | 33.61960 | -115.71303 | 8354 ft | 120 kts | 91° |
| 2026-05-06 04:39 | 33.61939 | -115.70298 | 8360 ft | 121 kts | 92° |
| 2026-05-06 04:39 | 33.61918 | -115.69287 | 8358 ft | 121 kts | 92° |
| 2026-05-06 04:39 | 33.61896 | -115.68278 | 8365 ft | 122 kts | 92° |
| 2026-05-06 04:39 | 33.61876 | -115.67264 | 8359 ft | 121 kts | 93° |
| 2026-05-06 04:40 | 33.61853 | -115.66256 | 8360 ft | 121 kts | 93° |
| 2026-05-06 04:40 | 33.61832 | -115.65247 | 8364 ft | 121 kts | 92° |
| 2026-05-06 04:40 | 33.61811 | -115.64242 | 8360 ft | 121 kts | 93° |
| 2026-05-06 04:40 | 33.61789 | -115.63232 | 8359 ft | 122 kts | 93° |
| 2026-05-06 04:41 | 33.61767 | -115.62217 | 8358 ft | 122 kts | 93° |
| 2026-05-06 04:41 | 33.61745 | -115.61204 | 8359 ft | 121 kts | 94° |
| 2026-05-06 04:41 | 33.61723 | -115.60191 | 8361 ft | 121 kts | 94° |
| 2026-05-06 04:41 | 33.61701 | -115.59177 | 8360 ft | 122 kts | 94° |
| 2026-05-06 04:42 | 33.61679 | -115.58163 | 8361 ft | 121 kts | 94° |
| 2026-05-06 04:42 | 33.61656 | -115.57145 | 8365 ft | 123 kts | 93° |
| 2026-05-06 04:42 | 33.61634 | -115.56119 | 8389 ft | 121 kts | 94° |
| 2026-05-06 04:42 | 33.61612 | -115.55127 | 8448 ft | 119 kts | 95° |
| 2026-05-06 04:43 | 33.61590 | -115.54136 | 8451 ft | 120 kts | 94° |
| 2026-05-06 04:43 | 33.61568 | -115.53138 | 8452 ft | 120 kts | 95° |
| 2026-05-06 04:43 | 33.61545 | -115.52128 | 8457 ft | 122 kts | 95° |
| 2026-05-06 04:43 | 33.61522 | -115.51107 | 8459 ft | 123 kts | 95° |
| 2026-05-06 04:44 | 33.61500 | -115.50095 | 8461 ft | 123 kts | 94° |
| 2026-05-06 04:44 | 33.61476 | -115.49065 | 8458 ft | 123 kts | 95° |
| 2026-05-06 04:44 | 33.61453 | -115.48042 | 8458 ft | 123 kts | 96° |
| 2026-05-06 04:44 | 33.61430 | -115.47017 | 8465 ft | 123 kts | 96° |
| 2026-05-06 04:45 | 33.61406 | -115.45987 | 8459 ft | 123 kts | 95° |
| 2026-05-06 04:45 | 33.61382 | -115.44962 | 8461 ft | 123 kts | 96° |
| 2026-05-06 04:45 | 33.61358 | -115.43932 | 8468 ft | 124 kts | 96° |
| 2026-05-06 04:45 | 33.61335 | -115.42900 | 8469 ft | 124 kts | 95° |
| 2026-05-06 04:46 | 33.61310 | -115.41860 | 8468 ft | 124 kts | 95° |
| 2026-05-06 04:46 | 33.61288 | -115.40833 | 8467 ft | 123 kts | 96° |
| 2026-05-06 04:46 | 33.61264 | -115.39812 | 8465 ft | 122 kts | 97° |
| 2026-05-06 04:46 | 33.61239 | -115.38795 | 8462 ft | 122 kts | 95° |
| 2026-05-06 04:47 | 33.61225 | -115.37780 | 8457 ft | 121 kts | 98° |
| 2026-05-06 04:47 | 33.61187 | -115.36761 | 8466 ft | 124 kts | 95° |
| 2026-05-06 04:47 | 33.61167 | -115.35730 | 8467 ft | 123 kts | 97° |
| 2026-05-06 04:47 | 33.61141 | -115.34700 | 8467 ft | 124 kts | 96° |
| 2026-05-06 04:48 | 33.61117 | -115.33666 | 8460 ft | 123 kts | 97° |
| 2026-05-06 04:48 | 33.61093 | -115.32650 | 8466 ft | 123 kts | 97° |
| 2026-05-06 04:48 | 33.61070 | -115.31630 | 8465 ft | 121 kts | 96° |
| 2026-05-06 04:48 | 33.61044 | -115.30609 | 8467 ft | 124 kts | 97° |
| 2026-05-06 04:49 | 33.61018 | -115.29567 | 8467 ft | 126 kts | 97° |
| 2026-05-06 04:49 | 33.60993 | -115.28515 | 8464 ft | 126 kts | 97° |
| 2026-05-06 04:49 | 33.60970 | -115.27486 | 8457 ft | 122 kts | 97° |
| 2026-05-06 04:49 | 33.60944 | -115.26472 | 8450 ft | 122 kts | 96° |
| 2026-05-06 04:50 | 33.60919 | -115.25455 | 8451 ft | 123 kts | 97° |
| 2026-05-06 04:50 | 33.60894 | -115.24436 | 8447 ft | 122 kts | 96° |
| 2026-05-06 04:50 | 33.60870 | -115.23420 | 8451 ft | 122 kts | 98° |
| 2026-05-06 04:50 | 33.60843 | -115.22397 | 8453 ft | 123 kts | 96° |
| 2026-05-06 04:51 | 33.60817 | -115.21376 | 8452 ft | 122 kts | 96° |
| 2026-05-06 04:51 | 33.60792 | -115.20356 | 8451 ft | 122 kts | 97° |
| 2026-05-06 04:51 | 33.60768 | -115.19340 | 8460 ft | 121 kts | 98° |
| 2026-05-06 04:51 | 33.60742 | -115.18326 | 8455 ft | 122 kts | 98° |
| 2026-05-06 04:52 | 33.60717 | -115.17307 | 8454 ft | 122 kts | 99° |
| 2026-05-06 04:52 | 33.60690 | -115.16287 | 8455 ft | 122 kts | 98° |
| 2026-05-06 04:52 | 33.60664 | -115.15267 | 8451 ft | 122 kts | 99° |
| 2026-05-06 04:52 | 33.60639 | -115.14253 | 8453 ft | 121 kts | 98° |
| 2026-05-06 04:53 | 33.60614 | -115.13241 | 8452 ft | 122 kts | 97° |
| 2026-05-06 04:53 | 33.60587 | -115.12229 | 8451 ft | 121 kts | 98° |
| 2026-05-06 04:53 | 33.60561 | -115.11220 | 8458 ft | 121 kts | 99° |
| 2026-05-06 04:53 | 33.60535 | -115.10209 | 8459 ft | 121 kts | 97° |
| 2026-05-06 04:54 | 33.60509 | -115.09198 | 8459 ft | 121 kts | 97° |
| 2026-05-06 04:54 | 33.60482 | -115.08183 | 8460 ft | 122 kts | 99° |
| 2026-05-06 04:54 | 33.60456 | -115.07162 | 8462 ft | 122 kts | 98° |
| 2026-05-06 04:54 | 33.60431 | -115.06145 | 8464 ft | 122 kts | 99° |
| 2026-05-06 04:55 | 33.60403 | -115.05131 | 8467 ft | 121 kts | 99° |
| 2026-05-06 04:55 | 33.60376 | -115.04121 | 8466 ft | 121 kts | 98° |
| 2026-05-06 04:55 | 33.60350 | -115.03109 | 8465 ft | 122 kts | 99° |
| 2026-05-06 04:55 | 33.60323 | -115.02098 | 8466 ft | 122 kts | 100° |
| 2026-05-06 04:56 | 33.60296 | -115.01081 | 8469 ft | 122 kts | 99° |
| 2026-05-06 04:56 | 33.60269 | -115.00066 | 8472 ft | 122 kts | 98° |
| 2026-05-06 04:56 | 33.60242 | -114.99051 | 8474 ft | 121 kts | 99° |
| 2026-05-06 04:56 | 33.60215 | -114.98042 | 8473 ft | 121 kts | 99° |
| 2026-05-06 04:57 | 33.60188 | -114.97048 | 8475 ft | 121 kts | 98° |
| 2026-05-06 04:57 | 33.60161 | -114.96040 | 8476 ft | 121 kts | 98° |
| 2026-05-06 04:57 | 33.60135 | -114.95033 | 8478 ft | 121 kts | 100° |
| 2026-05-06 04:57 | 33.60107 | -114.94026 | 8478 ft | 121 kts | 100° |
| 2026-05-06 04:58 | 33.60079 | -114.93022 | 8478 ft | 121 kts | 99° |
| 2026-05-06 04:58 | 33.60053 | -114.92016 | 8480 ft | 121 kts | 99° |
| 2026-05-06 04:58 | 33.60026 | -114.91012 | 8483 ft | 120 kts | 100° |
| 2026-05-06 04:58 | 33.59998 | -114.90014 | 8490 ft | 119 kts | 100° |
| 2026-05-06 04:59 | 33.59971 | -114.89021 | 8493 ft | 119 kts | 100° |
| 2026-05-06 04:59 | 33.59943 | -114.88029 | 8496 ft | 119 kts | 100° |
| 2026-05-06 04:59 | 33.59916 | -114.87035 | 8496 ft | 120 kts | 101° |
| 2026-05-06 04:59 | 33.59888 | -114.86035 | 8495 ft | 120 kts | 101° |
| 2026-05-06 05:00 | 33.59860 | -114.85033 | 8497 ft | 120 kts | 101° |
| 2026-05-06 05:00 | 33.59832 | -114.84030 | 8496 ft | 120 kts | 100° |
| 2026-05-06 05:00 | 33.59804 | -114.83025 | 8500 ft | 120 kts | 101° |
| 2026-05-06 05:00 | 33.59776 | -114.82023 | 8502 ft | 120 kts | 101° |
| 2026-05-06 05:01 | 33.59748 | -114.81024 | 8504 ft | 120 kts | 101° |
| 2026-05-06 05:01 | 33.59720 | -114.80024 | 8497 ft | 120 kts | 101° |
| 2026-05-06 05:01 | 33.59691 | -114.79024 | 8494 ft | 120 kts | 101° |
| 2026-05-06 05:01 | 33.59664 | -114.78023 | 8494 ft | 120 kts | 101° |
| 2026-05-06 05:02 | 33.59635 | -114.77022 | 8494 ft | 120 kts | 101° |
| 2026-05-06 05:02 | 33.59603 | -114.76024 | 8493 ft | 119 kts | 103° |
| 2026-05-06 05:02 | 33.59520 | -114.75041 | 8502 ft | 119 kts | 104° |
| 2026-05-06 05:02 | 33.59447 | -114.74055 | 8499 ft | 119 kts | 104° |
| 2026-05-06 05:03 | 33.59374 | -114.73070 | 8497 ft | 118 kts | 104° |
| 2026-05-06 05:03 | 33.59300 | -114.72087 | 8498 ft | 119 kts | 104° |
| 2026-05-06 05:03 | 33.59225 | -114.71104 | 8500 ft | 118 kts | 104° |
| 2026-05-06 05:03 | 33.59150 | -114.70123 | 8502 ft | 118 kts | 104° |
| 2026-05-06 05:04 | 33.59076 | -114.69154 | 8499 ft | 118 kts | 104° |
| 2026-05-06 05:04 | 33.59000 | -114.68170 | 8502 ft | 119 kts | 104° |
| 2026-05-06 05:04 | 33.58925 | -114.67185 | 8501 ft | 118 kts | 104° |
| 2026-05-06 05:04 | 33.58850 | -114.66203 | 8498 ft | 119 kts | 104° |
| 2026-05-06 05:05 | 33.58773 | -114.65217 | 8497 ft | 119 kts | 104° |
| 2026-05-06 05:05 | 33.58698 | -114.64228 | 8495 ft | 119 kts | 104° |
| 2026-05-06 05:05 | 33.58622 | -114.63243 | 8496 ft | 119 kts | 104° |
| 2026-05-06 05:05 | 33.58545 | -114.62257 | 8499 ft | 119 kts | 104° |
| 2026-05-06 05:06 | 33.58469 | -114.61271 | 8496 ft | 118 kts | 104° |
| 2026-05-06 05:06 | 33.58394 | -114.60291 | 8494 ft | 118 kts | 104° |
| 2026-05-06 05:06 | 33.58317 | -114.59314 | 8495 ft | 118 kts | 104° |
| 2026-05-06 05:06 | 33.58267 | -114.58664 | 8492 ft | 118 kts | 104° |
| 2026-05-06 05:07 | 33.58191 | -114.57685 | 8488 ft | 118 kts | 104° |
| 2026-05-06 05:07 | 33.58115 | -114.56707 | 8489 ft | 118 kts | 104° |
| 2026-05-06 05:07 | 33.58039 | -114.55726 | 8488 ft | 118 kts | 104° |
| 2026-05-06 05:07 | 33.57963 | -114.54750 | 8485 ft | 117 kts | 104° |
| 2026-05-06 05:08 | 33.57887 | -114.53777 | 8488 ft | 117 kts | 104° |
| 2026-05-06 05:08 | 33.57811 | -114.52805 | 8486 ft | 117 kts | 104° |
| 2026-05-06 05:08 | 33.57735 | -114.51828 | 8485 ft | 118 kts | 104° |
| 2026-05-06 05:08 | 33.57658 | -114.50851 | 8483 ft | 118 kts | 104° |
| 2026-05-06 05:09 | 33.57581 | -114.49868 | 8486 ft | 119 kts | 104° |
| 2026-05-06 05:09 | 33.57503 | -114.48879 | 8486 ft | 119 kts | 104° |
| 2026-05-06 05:09 | 33.57427 | -114.47890 | 8482 ft | 119 kts | 104° |
| 2026-05-06 05:09 | 33.57350 | -114.46907 | 8480 ft | 118 kts | 103° |
| 2026-05-06 05:10 | 33.57272 | -114.45931 | 8479 ft | 118 kts | 103° |
| 2026-05-06 05:10 | 33.57196 | -114.44953 | 8476 ft | 118 kts | 103° |
| 2026-05-06 05:10 | 33.57119 | -114.43980 | 8477 ft | 117 kts | 104° |
| 2026-05-06 05:10 | 33.57043 | -114.43014 | 8478 ft | 117 kts | 103° |
| 2026-05-06 05:11 | 33.56966 | -114.42041 | 8478 ft | 117 kts | 103° |
| 2026-05-06 05:11 | 33.56889 | -114.41067 | 8475 ft | 118 kts | 103° |
| 2026-05-06 05:11 | 33.56812 | -114.40091 | 8475 ft | 117 kts | 103° |
| 2026-05-06 05:11 | 33.56735 | -114.39119 | 8476 ft | 117 kts | 103° |
| 2026-05-06 05:12 | 33.56660 | -114.38155 | 8479 ft | 116 kts | 104° |
| 2026-05-06 05:12 | 33.56580 | -114.37186 | 8477 ft | 118 kts | 103° |
| 2026-05-06 05:12 | 33.56505 | -114.36218 | 8476 ft | 116 kts | 103° |
| 2026-05-06 05:12 | 33.56430 | -114.35273 | 8484 ft | 115 kts | 103° |
| 2026-05-06 05:13 | 33.56352 | -114.34296 | 8483 ft | 119 kts | 103° |
| 2026-05-06 05:13 | 33.56272 | -114.33305 | 8488 ft | 119 kts | 103° |
| 2026-05-06 05:13 | 33.56194 | -114.32316 | 8480 ft | 118 kts | 102° |
| 2026-05-06 05:13 | 33.56120 | -114.31355 | 8472 ft | 114 kts | 103° |
| 2026-05-06 05:14 | 33.56042 | -114.30411 | 8466 ft | 115 kts | 103° |
| 2026-05-06 05:14 | 33.55966 | -114.29457 | 8472 ft | 116 kts | 103° |
| 2026-05-06 05:14 | 33.55890 | -114.28498 | 8474 ft | 116 kts | 103° |
| 2026-05-06 05:14 | 33.55813 | -114.27539 | 8475 ft | 116 kts | 103° |
| 2026-05-06 05:15 | 33.55736 | -114.26580 | 8477 ft | 116 kts | 103° |
| 2026-05-06 05:15 | 33.55659 | -114.25619 | 8477 ft | 116 kts | 103° |
| 2026-05-06 05:15 | 33.55581 | -114.24655 | 8478 ft | 116 kts | 102° |
| 2026-05-06 05:15 | 33.55504 | -114.23689 | 8476 ft | 116 kts | 103° |
| 2026-05-06 05:16 | 33.55426 | -114.22724 | 8477 ft | 116 kts | 103° |
| 2026-05-06 05:16 | 33.55349 | -114.21771 | 8475 ft | 116 kts | 103° |
| 2026-05-06 05:16 | 33.55271 | -114.20805 | 8477 ft | 116 kts | 102° |
| 2026-05-06 05:16 | 33.55194 | -114.19841 | 8477 ft | 116 kts | 103° |
| 2026-05-06 05:17 | 33.55116 | -114.18880 | 8476 ft | 116 kts | 103° |
| 2026-05-06 05:17 | 33.55038 | -114.17918 | 8474 ft | 116 kts | 103° |
| 2026-05-06 05:17 | 33.54960 | -114.16956 | 8480 ft | 116 kts | 102° |
| 2026-05-06 05:17 | 33.54882 | -114.15992 | 8479 ft | 116 kts | 102° |
| 2026-05-06 05:18 | 33.54804 | -114.15027 | 8480 ft | 116 kts | 103° |
| 2026-05-06 05:18 | 33.54725 | -114.14062 | 8483 ft | 116 kts | 103° |
| 2026-05-06 05:18 | 33.54646 | -114.13097 | 8481 ft | 117 kts | 102° |
| 2026-05-06 05:18 | 33.54568 | -114.12126 | 8481 ft | 117 kts | 102° |
| 2026-05-06 05:19 | 33.54489 | -114.11159 | 8479 ft | 117 kts | 102° |
| 2026-05-06 05:19 | 33.54410 | -114.10192 | 8482 ft | 117 kts | 102° |
| 2026-05-06 05:19 | 33.54332 | -114.09225 | 8482 ft | 116 kts | 102° |
| 2026-05-06 05:19 | 33.54254 | -114.08270 | 8483 ft | 115 kts | 101° |
| 2026-05-06 05:20 | 33.54176 | -114.07314 | 8479 ft | 115 kts | 101° |
| 2026-05-06 05:20 | 33.54097 | -114.06357 | 8480 ft | 116 kts | 101° |
| 2026-05-06 05:20 | 33.54018 | -114.05391 | 8479 ft | 117 kts | 101° |
| 2026-05-06 05:20 | 33.53938 | -114.04425 | 8484 ft | 117 kts | 102° |
| 2026-05-06 05:21 | 33.53860 | -114.03456 | 8486 ft | 117 kts | 101° |
| 2026-05-06 05:21 | 33.53780 | -114.02490 | 8481 ft | 116 kts | 103° |
| 2026-05-06 05:21 | 33.53700 | -114.01529 | 8482 ft | 116 kts | 101° |
| 2026-05-06 05:21 | 33.53622 | -114.00569 | 8480 ft | 115 kts | 103° |
| 2026-05-06 05:22 | 33.53543 | -113.99612 | 8479 ft | 115 kts | 103° |
| 2026-05-06 05:22 | 33.53465 | -113.98658 | 8480 ft | 115 kts | 102° |
| 2026-05-06 05:22 | 33.53387 | -113.97703 | 8478 ft | 115 kts | 102° |
| 2026-05-06 05:22 | 33.53307 | -113.96756 | 8483 ft | 114 kts | 101° |
| 2026-05-06 05:23 | 33.53229 | -113.95809 | 8482 ft | 114 kts | 102° |
| 2026-05-06 05:23 | 33.53149 | -113.94858 | 8487 ft | 115 kts | 102° |
| 2026-05-06 05:23 | 33.52993 | -113.92946 | 8487 ft | 114 kts | 102° |
| 2026-05-06 05:24 | 33.52915 | -113.92008 | 8488 ft | 113 kts | 103° |
| 2026-05-06 05:24 | 33.52836 | -113.91066 | 8491 ft | 114 kts | 101° |
| 2026-05-06 05:24 | 33.52757 | -113.90111 | 8489 ft | 116 kts | 102° |
| 2026-05-06 05:24 | 33.52678 | -113.89163 | 8493 ft | 116 kts | 102° |
| 2026-05-06 05:25 | 33.52598 | -113.88207 | 8493 ft | 115 kts | 101° |
| 2026-05-06 05:25 | 33.52517 | -113.87254 | 8494 ft | 115 kts | 101° |
| 2026-05-06 05:25 | 33.52439 | -113.86302 | 8497 ft | 115 kts | 101° |
| 2026-05-06 05:25 | 33.52359 | -113.85349 | 8495 ft | 115 kts | 101° |
| 2026-05-06 05:26 | 33.52280 | -113.84399 | 8496 ft | 114 kts | 102° |
| 2026-05-06 05:26 | 33.52201 | -113.83452 | 8492 ft | 114 kts | 101° |
| 2026-05-06 05:26 | 33.52121 | -113.82501 | 8500 ft | 115 kts | 103° |
| 2026-05-06 05:26 | 33.52041 | -113.81541 | 8505 ft | 116 kts | 101° |
| 2026-05-06 05:27 | 33.51959 | -113.80579 | 8505 ft | 116 kts | 101° |
| 2026-05-06 05:27 | 33.51879 | -113.79621 | 8499 ft | 115 kts | 102° |
| 2026-05-06 05:27 | 33.51800 | -113.78672 | 8500 ft | 114 kts | 102° |
| 2026-05-06 05:27 | 33.51719 | -113.77726 | 8500 ft | 114 kts | 102° |
| 2026-05-06 05:28 | 33.51640 | -113.76783 | 8500 ft | 113 kts | 101° |
| 2026-05-06 05:28 | 33.51562 | -113.75844 | 8501 ft | 113 kts | 101° |
| 2026-05-06 05:28 | 33.51482 | -113.74905 | 8501 ft | 113 kts | 100° |
| 2026-05-06 05:28 | 33.51402 | -113.73964 | 8500 ft | 114 kts | 101° |
| 2026-05-06 05:29 | 33.51323 | -113.73022 | 8502 ft | 114 kts | 101° |
| 2026-05-06 05:29 | 33.51243 | -113.72082 | 8502 ft | 113 kts | 101° |
| 2026-05-06 05:29 | 33.51164 | -113.71143 | 8503 ft | 114 kts | 100° |
| 2026-05-06 05:29 | 33.51083 | -113.70200 | 8505 ft | 114 kts | 101° |
| 2026-05-06 05:30 | 33.51004 | -113.69259 | 8509 ft | 114 kts | 101° |
| 2026-05-06 05:30 | 33.50924 | -113.68314 | 8509 ft | 114 kts | 101° |
| 2026-05-06 05:30 | 33.50844 | -113.67371 | 8509 ft | 114 kts | 101° |
| 2026-05-06 05:30 | 33.50764 | -113.66429 | 8510 ft | 113 kts | 100° |
| 2026-05-06 05:31 | 33.50683 | -113.65488 | 8510 ft | 114 kts | 101° |
| 2026-05-06 05:31 | 33.50602 | -113.64543 | 8508 ft | 114 kts | 100° |
| 2026-05-06 05:31 | 33.50523 | -113.63604 | 8509 ft | 113 kts | 100° |
| 2026-05-06 05:31 | 33.50442 | -113.62663 | 8509 ft | 114 kts | 100° |
| 2026-05-06 05:32 | 33.50362 | -113.61723 | 8511 ft | 114 kts | 100° |
| 2026-05-06 05:32 | 33.50281 | -113.60781 | 8511 ft | 114 kts | 100° |
| 2026-05-06 05:32 | 33.50201 | -113.59839 | 8509 ft | 113 kts | 100° |
| 2026-05-06 05:32 | 33.50120 | -113.58901 | 8509 ft | 113 kts | 100° |
| 2026-05-06 05:33 | 33.50040 | -113.57964 | 8506 ft | 113 kts | 99° |
| 2026-05-06 05:33 | 33.49960 | -113.57031 | 8508 ft | 113 kts | 100° |
| 2026-05-06 05:33 | 33.49879 | -113.56094 | 8508 ft | 113 kts | 100° |
| 2026-05-06 05:33 | 33.49799 | -113.55154 | 8508 ft | 113 kts | 100° |
| 2026-05-06 05:34 | 33.49717 | -113.54217 | 8509 ft | 113 kts | 100° |
| 2026-05-06 05:34 | 33.49636 | -113.53276 | 8509 ft | 114 kts | 100° |
| 2026-05-06 05:34 | 33.49556 | -113.52336 | 8508 ft | 113 kts | 99° |
| 2026-05-06 05:34 | 33.49476 | -113.51409 | 8508 ft | 114 kts | 100° |
| 2026-05-06 05:35 | 33.49395 | -113.50469 | 8508 ft | 113 kts | 100° |
| 2026-05-06 05:35 | 33.49313 | -113.49530 | 8508 ft | 113 kts | 99° |
| 2026-05-06 05:35 | 33.49231 | -113.48588 | 8508 ft | 114 kts | 100° |
| 2026-05-06 05:35 | 33.49150 | -113.47641 | 8507 ft | 115 kts | 100° |
| 2026-05-06 05:36 | 33.49067 | -113.46697 | 8505 ft | 113 kts | 100° |
| 2026-05-06 05:36 | 33.48986 | -113.45756 | 8503 ft | 114 kts | 99° |
| 2026-05-06 05:36 | 33.48904 | -113.44813 | 8502 ft | 114 kts | 100° |
| 2026-05-06 05:36 | 33.48822 | -113.43871 | 8503 ft | 114 kts | 100° |
| 2026-05-06 05:37 | 33.48740 | -113.42930 | 8502 ft | 114 kts | 99° |
| 2026-05-06 05:37 | 33.48658 | -113.41983 | 8502 ft | 115 kts | 99° |
| 2026-05-06 05:37 | 33.48574 | -113.41032 | 8502 ft | 115 kts | 99° |
| 2026-05-06 05:37 | 33.48492 | -113.40078 | 8502 ft | 115 kts | 99° |
| 2026-05-06 05:38 | 33.48409 | -113.39134 | 8497 ft | 113 kts | 100° |
| 2026-05-06 05:38 | 33.48327 | -113.38197 | 8494 ft | 113 kts | 99° |
| 2026-05-06 05:38 | 33.48245 | -113.37260 | 8492 ft | 113 kts | 99° |
| 2026-05-06 05:38 | 33.48163 | -113.36324 | 8491 ft | 113 kts | 99° |
| 2026-05-06 05:39 | 33.48081 | -113.35388 | 8488 ft | 113 kts | 99° |
| 2026-05-06 05:39 | 33.47999 | -113.34455 | 8486 ft | 113 kts | 99° |
| 2026-05-06 05:39 | 33.47918 | -113.33525 | 8489 ft | 112 kts | 99° |
| 2026-05-06 05:39 | 33.47836 | -113.32595 | 8487 ft | 112 kts | 99° |
| 2026-05-06 05:40 | 33.47754 | -113.31663 | 8487 ft | 113 kts | 99° |
| 2026-05-06 05:40 | 33.47672 | -113.30734 | 8483 ft | 112 kts | 99° |
| 2026-05-06 05:40 | 33.47591 | -113.29809 | 8479 ft | 112 kts | 99° |
| 2026-05-06 05:40 | 33.47509 | -113.28883 | 8478 ft | 112 kts | 98° |
| 2026-05-06 05:41 | 33.47427 | -113.27957 | 8479 ft | 112 kts | 99° |
| 2026-05-06 05:41 | 33.47345 | -113.27031 | 8476 ft | 112 kts | 99° |
| 2026-05-06 05:41 | 33.47264 | -113.26104 | 8474 ft | 112 kts | 99° |
| 2026-05-06 05:41 | 33.47182 | -113.25179 | 8475 ft | 112 kts | 99° |
| 2026-05-06 05:42 | 33.47100 | -113.24255 | 8476 ft | 112 kts | 99° |
| 2026-05-06 05:42 | 33.47018 | -113.23328 | 8472 ft | 112 kts | 99° |
| 2026-05-06 05:42 | 33.46936 | -113.22401 | 8468 ft | 112 kts | 98° |
| 2026-05-06 05:42 | 33.46853 | -113.21472 | 8467 ft | 112 kts | 98° |
| 2026-05-06 05:43 | 33.46771 | -113.20544 | 8469 ft | 112 kts | 98° |
| 2026-05-06 05:43 | 33.46688 | -113.19615 | 8465 ft | 112 kts | 98° |
| 2026-05-06 05:43 | 33.46605 | -113.18687 | 8467 ft | 112 kts | 98° |
| 2026-05-06 05:43 | 33.46523 | -113.17757 | 8466 ft | 112 kts | 99° |
| 2026-05-06 05:44 | 33.46440 | -113.16826 | 8462 ft | 112 kts | 98° |
| 2026-05-06 05:44 | 33.46357 | -113.15895 | 8466 ft | 113 kts | 98° |
| 2026-05-06 05:44 | 33.46273 | -113.14964 | 8464 ft | 112 kts | 98° |
| 2026-05-06 05:44 | 33.46190 | -113.14036 | 8465 ft | 112 kts | 98° |
| 2026-05-06 05:45 | 33.46107 | -113.13109 | 8462 ft | 112 kts | 98° |
| 2026-05-06 05:45 | 33.46024 | -113.12182 | 8464 ft | 112 kts | 98° |
| 2026-05-06 05:45 | 33.45941 | -113.11252 | 8461 ft | 112 kts | 98° |
| 2026-05-06 05:45 | 33.45857 | -113.10317 | 8443 ft | 114 kts | 98° |
| 2026-05-06 05:46 | 33.45773 | -113.09379 | 8446 ft | 113 kts | 98° |
| 2026-05-06 05:46 | 33.45689 | -113.08446 | 8446 ft | 113 kts | 98° |
| 2026-05-06 05:46 | 33.45606 | -113.07516 | 8449 ft | 112 kts | 98° |
| 2026-05-06 05:46 | 33.45522 | -113.06585 | 8451 ft | 112 kts | 98° |
| 2026-05-06 05:47 | 33.45438 | -113.05653 | 8452 ft | 113 kts | 98° |
| 2026-05-06 05:47 | 33.45353 | -113.04720 | 8455 ft | 113 kts | 98° |
| 2026-05-06 05:47 | 33.45270 | -113.03786 | 8457 ft | 113 kts | 98° |
| 2026-05-06 05:47 | 33.45186 | -113.02862 | 8458 ft | 113 kts | 98° |
| 2026-05-06 05:48 | 33.45098 | -113.01901 | 8356 ft | 121 kts | 98° |
| 2026-05-06 05:48 | 33.45004 | -113.00876 | 8131 ft | 129 kts | 98° |
| 2026-05-06 05:48 | 33.44907 | -112.99798 | 7901 ft | 132 kts | 98° |
| 2026-05-06 05:48 | 33.44807 | -112.98703 | 7666 ft | 133 kts | 97° |
| 2026-05-06 05:49 | 33.44707 | -112.97599 | 7426 ft | 134 kts | 97° |
| 2026-05-06 05:49 | 33.44607 | -112.96489 | 7190 ft | 134 kts | 97° |
| 2026-05-06 05:49 | 33.44506 | -112.95374 | 6953 ft | 135 kts | 97° |
| 2026-05-06 05:49 | 33.44443 | -112.94252 | 6716 ft | 136 kts | 89° |
| 2026-05-06 05:50 | 33.44507 | -112.93121 | 6482 ft | 137 kts | 85° |
| 2026-05-06 05:50 | 33.44596 | -112.91989 | 6241 ft | 136 kts | 85° |
| 2026-05-06 05:50 | 33.44684 | -112.90859 | 5991 ft | 137 kts | 85° |
| 2026-05-06 05:50 | 33.44772 | -112.89725 | 5737 ft | 137 kts | 85° |
| 2026-05-06 05:51 | 33.44861 | -112.88588 | 5494 ft | 138 kts | 85° |
| 2026-05-06 05:51 | 33.44953 | -112.87443 | 5251 ft | 138 kts | 85° |
| 2026-05-06 05:51 | 33.45045 | -112.86296 | 5009 ft | 139 kts | 85° |
| 2026-05-06 05:51 | 33.45137 | -112.85144 | 4766 ft | 139 kts | 85° |
| 2026-05-06 05:52 | 33.45230 | -112.83989 | 4521 ft | 140 kts | 85° |
| 2026-05-06 05:52 | 33.45325 | -112.82830 | 4271 ft | 140 kts | 84° |
| 2026-05-06 05:52 | 33.45443 | -112.81675 | 4021 ft | 139 kts | 72° |
| 2026-05-06 05:52 | 33.46077 | -112.80871 | 3759 ft | 135 kts | 16° |
| 2026-05-06 05:53 | 33.46981 | -112.80604 | 3519 ft | 134 kts | 10° |
| 2026-05-06 05:53 | 33.47887 | -112.80326 | 3285 ft | 135 kts | 9° |
| 2026-05-06 05:53 | 33.48807 | -112.80191 | 3037 ft | 133 kts | 359° |
| 2026-05-06 05:53 | 33.49407 | -112.80133 | 2993 ft | 126 kts | 3° |
| 2026-05-06 05:54 | 33.50106 | -112.79567 | 2979 ft | 128 kts | 63° |
| 2026-05-06 05:54 | 33.50252 | -112.78537 | 2986 ft | 125 kts | 90° |
| 2026-05-06 05:54 | 33.50235 | -112.77142 | 2987 ft | 125 kts | 92° |
| 2026-05-06 05:54 | 33.50233 | -112.76471 | 2985 ft | 118 kts | 92° |
| 2026-05-06 05:55 | 33.50229 | -112.75516 | 2985 ft | 113 kts | 91° |
| 2026-05-06 05:55 | 33.50217 | -112.74584 | 2990 ft | 111 kts | 92° |
| 2026-05-06 05:55 | 33.50205 | -112.73662 | 2987 ft | 109 kts | 91° |
| 2026-05-06 05:55 | 33.50196 | -112.72786 | 2990 ft | 103 kts | 92° |
| 2026-05-06 05:56 | 33.50191 | -112.71932 | 2989 ft | 101 kts | 92° |
| 2026-05-06 05:56 | 33.50190 | -112.71136 | 2983 ft | 90 kts | 91° |
| 2026-05-06 05:56 | 33.50187 | -112.70410 | 2989 ft | 86 kts | 92° |
| 2026-05-06 05:56 | 33.50187 | -112.69683 | 2991 ft | 88 kts | 92° |
| 2026-05-06 05:57 | 33.50072 | -112.68986 | 2985 ft | 84 kts | 141° |
| 2026-05-06 05:57 | 33.49549 | -112.68754 | 2920 ft | 81 kts | 174° |
| 2026-05-06 05:57 | 33.48987 | -112.68562 | 2785 ft | 86 kts | 172° |
| 2026-05-06 05:57 | 33.48445 | -112.68386 | 2667 ft | 72 kts | 176° |
| 2026-05-06 05:58 | 33.47983 | -112.68326 | 2508 ft | 64 kts | 188° |
| 2026-05-06 05:58 | 33.47549 | -112.68313 | 2373 ft | 60 kts | 188° |
| 2026-05-06 05:58 | 33.47098 | -112.68323 | 2252 ft | 70 kts | 190° |
| 2026-05-06 05:58 | 33.46652 | -112.68355 | 2100 ft | 62 kts | 189° |
| 2026-05-06 05:59 | 33.46248 | -112.68372 | 2019 ft | 52 kts | 186° |
| 2026-05-06 05:59 | 33.45884 | -112.68396 | 1881 ft | 50 kts | 188° |
| 2026-05-06 05:59 | 33.45533 | -112.68435 | 1741 ft | 52 kts | 190° |
| 2026-05-06 05:59 | 33.45145 | -112.68509 | 1574 ft | 73 kts | 199° |
| 2026-05-06 06:00 | 33.44625 | -112.68520 | 1457 ft | 75 kts | 184° |
| 2026-05-06 06:00 | 33.44099 | -112.68577 | 1372 ft | 80 kts | 186° |
| 2026-05-06 06:00 | 33.43527 | -112.68578 | 1203 ft | 76 kts | 188° |
| 2026-05-06 06:00 | 33.43027 | -112.68595 | 1059 ft | 71 kts | 186° |
| 2026-05-06 06:01 | 33.42618 | -112.68621 | 1029 ft | 44 kts | 184° |
| 2026-05-06 06:01 | 33.42389 | -112.68616 | 1024 ft | 19 kts | 152° |
| 2026-05-06 06:01 | 33.42428 | -112.68532 | 1021 ft | 11 kts | 46° |
| 2026-05-06 06:01 | 33.42422 | -112.68487 | 1023 ft | 8 kts | 182° |
| 2026-05-06 06:02 | 33.42319 | -112.68492 | 1021 ft | 22 kts | 181° |
| 2026-05-06 06:02 | 33.42158 | -112.68498 | 1017 ft | 23 kts | 179° |